^^
Station Historical Data
Daily Summary for September 23, 2017 Units:  English    Metric   Both
« Previous Day
Next Day »
Daily Weekly Monthly Yearly Custom
  High: Low: Average:
Temperature: 84.6 °F 63.9 °F 73.2 °F
Dew Point: 59.1 °F 53.8 °F 56.2 °F
Humidity: 74% 36% 57%
Wind Speed: 5.0mph 0.0mph 0.9mph
Wind Gust: 13.0mph - -
Wind- - West
Pressure: 30.07 in 29.99 in -
Precipitation: 0.00 in    
Historical Graphs
 
 
Tabular Data for September 23, 2017
Time Temperature Dew Point Pressure Wind Wind Speed Wind Gust Humidity Rainfall Rate (Hourly) Conditions
00:00 69.2 °F 57.3 °F 29.99 in NW 1.0 mph 7.0 mph 66% 0.00 in CLR
00:15 69.0 °F 57.2 °F 29.99 in NW 3.0 mph 9.0 mph 66% 0.00 in CLR
00:30 68.8 °F 57.4 °F 29.99 in NW 1.0 mph 7.0 mph 67% 0.00 in CLR
00:45 68.6 °F 57.6 °F 29.99 in NW 2.0 mph 6.0 mph 68% 0.00 in CLR
01:00 68.4 °F 57.4 °F 29.99 in WNW 1.0 mph 5.0 mph 68% 0.00 in CLR
02:15 68.5 °F 56.2 °F 29.99 in WNW 2.0 mph 5.0 mph 65% 0.00 in CLR
02:30 68.4 °F 56.6 °F 29.99 in NW 1.0 mph 4.0 mph 66% 0.00 in CLR
02:45 68.1 °F 56.3 °F 29.99 in Calm   5.0 mph 66% 0.00 in CLR
03:00 67.9 °F 56.6 °F 29.99 in NW 1.0 mph 8.0 mph 67% 0.00 in CLR
03:15 67.7 °F 56.8 °F 29.99 in Calm   4.0 mph 68% 0.00 in CLR
03:30 67.6 °F 56.7 °F 29.99 in Calm   4.0 mph 68% 0.00 in CLR
03:45 67.0 °F 56.8 °F 29.99 in Calm   3.0 mph 70% 0.00 in CLR
04:00 66.6 °F 56.9 °F 29.99 in Calm   3.0 mph 71% 0.00 in CLR
04:15 66.0 °F 56.7 °F 29.99 in Calm   1.0 mph 72% 0.00 in CLR
04:30 65.1 °F 56.6 °F 29.99 in Calm   2.0 mph 74% 0.00 in CLR
04:45 65.1 °F 56.2 °F 30.00 in NW 1.0 mph 3.0 mph 73% 0.00 in CLR
05:00 65.3 °F 55.7 °F 30.00 in NNE 1.0 mph 4.0 mph 71% 0.00 in CLR
05:15 65.4 °F 55.7 °F 30.00 in Calm   5.0 mph 71% 0.00 in CLR
05:30 64.9 °F 55.3 °F 30.00 in Calm   3.0 mph 71% 0.00 in CLR
05:45 64.5 °F 54.9 °F 30.01 in Calm   2.0 mph 71% 0.00 in CLR
06:00 64.3 °F 54.7 °F 30.01 in Calm   4.0 mph 71% 0.00 in CLR
06:15 64.1 °F 54.5 °F 30.01 in Calm   3.0 mph 71% 0.00 in CLR
06:30 63.9 °F 54.3 °F 30.01 in Calm   2.0 mph 71% 0.00 in CLR
06:45 64.3 °F 54.7 °F 30.01 in Calm   4.0 mph 71% 0.00 in CLR
07:00 64.6 °F 54.6 °F 30.01 in Calm   3.0 mph 70% 0.00 in CLR
07:15 64.7 °F 54.3 °F 30.01 in Calm   3.0 mph 69% 0.00 in CLR
07:30 64.9 °F 54.1 °F 30.01 in Calm   4.0 mph 68% 0.00 in CLR
07:45 65.1 °F 53.9 °F 30.02 in NW 1.0 mph 5.0 mph 67% 0.00 in CLR
08:00 65.4 °F 53.8 °F 30.03 in Calm   12.0 mph 66% 0.00 in CLR
08:15 65.9 °F 53.8 °F 30.03 in Calm   6.0 mph 65% 0.00 in CLR
08:30 66.4 °F 54.3 °F 30.04 in WNW 1.0 mph 8.0 mph 65% 0.00 in CLR
08:45 67.0 °F 54.9 °F 30.05 in NNW 2.0 mph 12.0 mph 65% 0.00 in CLR
09:00 68.3 °F 54.8 °F 30.06 in North 3.0 mph 9.0 mph 62% 0.00 in CLR
09:15 69.3 °F 55.3 °F 30.06 in North 1.0 mph 13.0 mph 61% 0.00 in CLR
09:30 70.3 °F 55.8 °F 30.06 in NW 1.0 mph 10.0 mph 60% 0.00 in CLR
09:45 71.1 °F 56.0 °F 30.06 in NNW 3.0 mph 12.0 mph 59% 0.00 in CLR
10:00 72.1 °F 56.5 °F 30.06 in NNE 5.0 mph 13.0 mph 58% 0.00 in CLR
10:15 72.7 °F 56.6 °F 30.07 in NW 2.0 mph 12.0 mph 57% 0.00 in CLR
10:30 73.7 °F 57.1 °F 30.07 in Calm   7.0 mph 56% 0.00 in CLR
10:45 74.4 °F 57.7 °F 30.06 in NNW 1.0 mph 8.0 mph 56% 0.00 in CLR
11:00 74.8 °F 58.0 °F 30.07 in NNW 2.0 mph 9.0 mph 56% 0.00 in CLR
11:15 75.4 °F 59.1 °F 30.06 in NNW 2.0 mph 9.0 mph 57% 0.00 in CLR
11:30 76.6 °F 58.8 °F 30.06 in NNE 1.0 mph 7.0 mph 54% 0.00 in CLR
11:45 77.2 °F 58.7 °F 30.05 in NNW 3.0 mph 10.0 mph 53% 0.00 in CLR
12:00 77.8 °F 58.8 °F 30.06 in NNW 1.0 mph 10.0 mph 52% 0.00 in CLR
12:15 78.4 °F 58.8 °F 30.06 in NNW 1.0 mph 6.0 mph 51% 0.00 in CLR
12:30 79.1 °F 58.3 °F 30.05 in WNW 2.0 mph 8.0 mph 49% 0.00 in CLR
12:45 79.2 °F 59.0 °F 30.05 in WNW 1.0 mph 12.0 mph 50% 0.00 in CLR
13:00 79.9 °F 57.3 °F 30.05 in NNE 3.0 mph 12.0 mph 46% 0.00 in CLR
13:15 80.8 °F 57.5 °F 30.04 in NW 3.0 mph 10.0 mph 45% 0.00 in CLR
13:30 80.8 °F 57.4 °F 30.04 in North 2.0 mph 12.0 mph 45% 0.00 in CLR
13:45 81.5 °F 56.2 °F 30.04 in NNE 2.0 mph 9.0 mph 42% 0.00 in CLR
14:00 82.3 °F 56.9 °F 30.03 in North 1.0 mph 7.0 mph 42% 0.00 in CLR
14:15 82.1 °F 56.1 °F 30.03 in North 3.0 mph 9.0 mph 41% 0.00 in CLR
14:30 82.4 °F 55.7 °F 30.03 in NNW 2.0 mph 9.0 mph 40% 0.00 in CLR
14:45 82.3 °F 55.5 °F 30.02 in WNW 2.0 mph 9.0 mph 40% 0.00 in CLR
15:00 82.8 °F 56.0 °F 30.02 in NW 1.0 mph 10.0 mph 40% 0.00 in CLR
15:15 82.8 °F 55.3 °F 30.02 in NW 3.0 mph 8.0 mph 39% 0.00 in CLR
15:30 83.2 °F 55.0 °F 30.02 in NW 3.0 mph 7.0 mph 38% 0.00 in CLR
15:45 84.2 °F 55.1 °F 30.01 in NNW 2.0 mph 6.0 mph 37% 0.00 in CLR
16:00 83.9 °F 54.1 °F 30.01 in NW 3.0 mph 7.0 mph 36% 0.00 in CLR
16:15 84.4 °F 55.3 °F 30.01 in West 1.0 mph 10.0 mph 37% 0.00 in CLR
16:30 84.5 °F 54.6 °F 30.01 in NW 2.0 mph 7.0 mph 36% 0.00 in CLR
16:45 84.6 °F 54.7 °F 30.01 in NW 1.0 mph 7.0 mph 36% 0.00 in CLR
17:00 84.3 °F 55.2 °F 30.01 in North 1.0 mph 8.0 mph 37% 0.00 in CLR
17:15 84.2 °F 55.9 °F 30.01 in North 1.0 mph 7.0 mph 38% 0.00 in CLR
17:30 84.0 °F 55.7 °F 30.01 in NNW 1.0 mph 7.0 mph 38% 0.00 in CLR
17:45 83.9 °F 54.8 °F 30.01 in NNW 1.0 mph 5.0 mph 37% 0.00 in CLR
18:00 83.7 °F 56.1 °F 30.01 in Calm   3.0 mph 39% 0.00 in CLR
18:15 83.2 °F 55.7 °F 30.01 in Calm   3.0 mph 39% 0.00 in CLR
18:30 82.3 °F 56.2 °F 30.02 in Calm   2.0 mph 41% 0.00 in CLR
18:45 80.0 °F 58.0 °F 30.02 in Calm   1.0 mph 47% 0.00 in CLR
19:00 77.7 °F 57.5 °F 30.02 in Calm   1.0 mph 50% 0.00 in CLR
19:15 75.6 °F 57.3 °F 30.02 in Calm     53% 0.00 in CLR
19:30 74.8 °F 54.9 °F 30.03 in Calm     50% 0.00 in CLR
19:45 75.1 °F 55.2 °F 30.03 in Calm     50% 0.00 in CLR
20:00 75.2 °F 54.7 °F 30.03 in Calm   1.0 mph 49% 0.00 in CLR
20:15 73.9 °F 55.7 °F 30.04 in Calm     53% 0.00 in CLR
20:30 73.5 °F 55.3 °F 30.04 in Calm     53% 0.00 in CLR
20:45 72.6 °F 55.5 °F 30.04 in Calm     55% 0.00 in CLR
21:00 71.1 °F 56.0 °F 30.04 in Calm     59% 0.00 in CLR
21:15 71.0 °F 56.4 °F 30.05 in Calm   1.0 mph 60% 0.00 in CLR
21:30 70.7 °F 56.6 °F 30.05 in Calm     61% 0.00 in CLR
21:45 69.8 °F 57.5 °F 30.05 in Calm     65% 0.00 in CLR
22:00 69.3 °F 57.0 °F 30.05 in Calm     65% 0.00 in CLR
22:15 70.5 °F 56.8 °F 30.04 in Calm     62% 0.00 in CLR
22:30 69.1 °F 56.5 °F 30.05 in Calm     64% 0.00 in CLR
22:45 68.8 °F 57.0 °F 30.05 in Calm     66% 0.00 in CLR
23:00 68.2 °F 56.8 °F 30.06 in Calm     67% 0.00 in CLR
23:30 68.2 °F 57.7 °F 30.06 in Calm     69% 0.00 in CLR
23:45 69.2 °F 57.4 °F 30.06 in Calm   1.0 mph 66% 0.00 in CLR
TarryTown NY Weather
Compliments of Weather Underground - 1.5 mb